Carrier Princess — CZ3582 — position and weather

sailwx.info

Track history (hours):
 
Tides and Currents Weather Stations Pressure Air Temp Water Temp Dewpoint Dewpoint Depression Visibility Wind Speed Wind Dir Waves Ship Positions

Carrier Princess

Last reported at 2015-Mar-28 03:30 UTC. Time now 2015-Mar-28 03:57 UTC.
Position N 49°10' W 123°56'.

Length 112 m; draft 3 m.

Type: Cargo ship. MMSI: 316003656.

Date/timePositionNaut miles runAvg speedWind from/ knotsBaromVisibWave heightAir tempDewpointWater temp
2015-Mar-28 03:30N 49°10' W 123°56'0 0.1
2015-Mar-28 02:33N 49°10' W 123°56'1010.3
2015-Mar-28 01:33N 49°12' W 123°40'1313.2
2015-Mar-28 00:33N 49°07' W 123°22'1313.0
2015-Mar-27 23:34N 49°09' W 123°02'0 0.2
2015-Mar-27 22:33N 49°09' W 123°02'4 4.0
2015-Mar-27 21:34N 49°07' W 123°07'9 8.9
2015-Mar-27 20:34N 49°03' W 123°20'1111.4
2015-Mar-27 19:33N 48°51' W 123°21'1010.0
2015-Mar-27 18:33N 48°41' W 123°24'0 0.0
2015-Mar-27 17:33N 48°41' W 123°24'0 0.0
2015-Mar-27 16:33N 48°41' W 123°24'0 0.0
2015-Mar-27 15:33N 48°41' W 123°24'0 0.0
2015-Mar-27 14:33N 48°41' W 123°24'0 0.0
2015-Mar-27 13:33N 48°41' W 123°24'0 0.0
2015-Mar-27 12:33N 48°41' W 123°24'3 2.9
2015-Mar-27 11:33N 48°44' W 123°24'1212.3
2015-Mar-27 10:33N 48°56' W 123°18'1212.3
2015-Mar-27 09:33N 49°08' W 123°14'8 7.8
2015-Mar-27 08:33N 49°09' W 123°02'0 0.0
2015-Mar-27 07:33N 49°09' W 123°02'9 8.6
2015-Mar-27 06:33N 49°07' W 123°15'1111.4
2015-Mar-27 05:33N 49°09' W 123°32'1211.9
2015-Mar-27 04:34N 49°13' W 123°50'5 5.0
2015-Mar-27 03:33N 49°10' W 123°56'0 0.0
2015-Mar-27 02:33N 49°10' W 123°56'10 9.8
2015-Mar-27 01:33N 49°13' W 123°41'1313.3
2015-Mar-27 00:33N 49°07' W 123°23'1313.2
2015-Mar-26 23:34N 49°09' W 123°03'0 0.4
2015-Mar-26 22:33N 49°09' W 123°02'5 4.8
2015-Mar-26 21:33N 49°06' W 123°09'8 8.3
2015-Mar-26 20:33N 49°01' W 123°19'1211.6
2015-Mar-26 19:33N 48°50' W 123°21'9 8.8
2015-Mar-26 18:33N 48°41' W 123°24'0 0.0
2015-Mar-26 17:33N 48°41' W 123°24'0 0.0
2015-Mar-26 16:34N 48°41' W 123°24'0 0.0
2015-Mar-26 15:33N 48°41' W 123°24'0 0.0
2015-Mar-26 14:33N 48°41' W 123°24'0 0.0
2015-Mar-26 13:34N 48°41' W 123°24'0 0.0
2015-Mar-26 12:34N 48°41' W 123°24'3 3.4
2015-Mar-26 11:34N 48°44' W 123°21'1212.1
2015-Mar-26 10:33N 48°56' W 123°18'1212.5
2015-Mar-26 09:34N 49°08' W 123°14'8 8.0
2015-Mar-26 08:33N 49°09' W 123°02'0 0.0
2015-Mar-26 07:33N 49°09' W 123°02'8 8.2
2015-Mar-26 06:33N 49°08' W 123°15'1111.1
2015-Mar-26 05:33N 49°09' W 123°32'1211.8
2015-Mar-26 04:33N 49°13' W 123°48'6 5.8
2015-Mar-26 03:33N 49°10' W 123°56'0 0.0
2015-Mar-26 02:33N 49°10' W 123°56'10 9.6
2015-Mar-26 01:33N 49°13' W 123°42'1414.0
2015-Mar-26 00:33N 49°07' W 123°22'1313.0
2015-Mar-25 23:33N 49°09' W 123°02'0 0.3
2015-Mar-25 22:33N 49°09' W 123°02'4 4.5
2015-Mar-25 21:33N 49°06' W 123°08'8 8.2
2015-Mar-25 20:33N 49°03' W 123°20'1212.0
2015-Mar-25 19:32N 48°51' W 123°21'10 9.4
2015-Mar-25 18:29N 48°41' W 123°24'0 0.0
2015-Mar-25 17:33N 48°41' W 123°24'0 0.0
2015-Mar-25 16:29N 48°41' W 123°24'0 0.0
2015-Mar-25 15:33N 48°41' W 123°24'0 0.0
2015-Mar-25 14:33N 48°41' W 123°24'0 0.0
2015-Mar-25 13:33N 48°41' W 123°24'0 0.0
2015-Mar-25 12:33N 48°41' W 123°24'3 3.4
2015-Mar-25 11:33N 48°44' W 123°21'1211.9
2015-Mar-25 10:33N 48°56' W 123°19'1212.2
2015-Mar-25 09:33N 49°08' W 123°15'9 8.6
2015-Mar-25 08:34N 49°09' W 123°02'0 0.0
2015-Mar-25 07:34N 49°09' W 123°02'7 7.3
2015-Mar-25 06:34N 49°08' W 123°13'1111.2
2015-Mar-25 05:33N 49°08' W 123°30'1212.3
2015-Mar-25 04:33N 49°13' W 123°48'6 6.0
2015-Mar-25 03:34N 49°10' W 123°56'0 0.0
2015-Mar-25 02:33N 49°10' W 123°56'9 8.9
2015-Mar-25 01:34N 49°13' W 123°43'1413.8
2015-Mar-25 00:33N 49°07' W 123°23'1313.1
2015-Mar-24 23:33N 49°08' W 123°03'1 1.0
2015-Mar-24 22:33N 49°09' W 123°02'5 5.1
2015-Mar-24 21:34N 49°07' W 123°09'8 7.7
2015-Mar-24 20:34N 49°02' W 123°19'1211.9
2015-Mar-24 19:33N 48°50' W 123°21'9 9.3
2015-Mar-24 18:33N 48°41' W 123°24'0 0.0
2015-Mar-24 17:33N 48°41' W 123°24'0 0.0
2015-Mar-24 16:33N 48°41' W 123°24'0 0.0
2015-Mar-24 15:33N 48°41' W 123°24'0 0.0
2015-Mar-24 14:33N 48°41' W 123°24'0 0.0
2015-Mar-24 13:33N 48°41' W 123°24'0 0.0
2015-Mar-24 12:33N 48°41' W 123°24'3 3.1
2015-Mar-24 11:32N 48°44' W 123°23'1111.5
2015-Mar-24 10:34N 48°55' W 123°18'1212.4
2015-Mar-24 09:33N 49°07' W 123°15'9 8.7
2015-Mar-24 08:33N 49°09' W 123°02'0 0.0
2015-Mar-24 07:33N 49°09' W 123°02'8 8.2
2015-Mar-24 06:33N 49°08' W 123°15'1211.6
2015-Mar-24 05:33N 49°09' W 123°32'1212.1
2015-Mar-24 04:33N 49°13' W 123°50'5 4.9
2015-Mar-24 03:33N 49°10' W 123°56'0 0.0
2015-Mar-24 02:33N 49°10' W 123°56'1010.3
2015-Mar-24 01:33N 49°12' W 123°41'1413.5
2015-Mar-24 00:33N 49°06' W 123°22'1212.4
2015-Mar-23 23:33N 49°08' W 123°04'1 1.2
2015-Mar-23 22:33N 49°09' W 123°02'0 0.0
2015-Mar-23 21:33N 49°09' W 123°02'0 0.1
2015-Mar-23 20:33N 49°09' W 123°02'0 0.0
2015-Mar-23 19:33N 49°09' W 123°02'0 0.0
2015-Mar-23 18:33N 49°09' W 123°02'0 0.0
2015-Mar-23 17:33N 49°09' W 123°02'0 0.0
2015-Mar-23 16:33N 49°09' W 123°02'0 0.0
2015-Mar-23 15:33N 49°09' W 123°02'0 0.0
2015-Mar-23 14:33N 49°09' W 123°02'0 0.0
2015-Mar-23 13:33N 49°09' W 123°02'0 0.0
2015-Mar-23 12:33N 49°09' W 123°02'0 0.0
2015-Mar-23 11:33N 49°09' W 123°02'0 0.0
2015-Mar-23 10:33N 49°09' W 123°02'0 0.0
2015-Mar-23 09:33N 49°09' W 123°02'0 0.0
2015-Mar-23 08:33N 49°09' W 123°02'0 0.0
2015-Mar-23 07:33N 49°09' W 123°02'0 0.0
2015-Mar-23 06:33N 49°09' W 123°02'0 0.0
2015-Mar-23 05:33N 49°09' W 123°02'0 0.0
2015-Mar-23 04:33N 49°09' W 123°02'0 0.0
2015-Mar-23 03:33N 49°09' W 123°02'0 0.0
2015-Mar-23 02:33N 49°09' W 123°02'0 0.0
2015-Mar-23 01:33N 49°09' W 123°02'0 0.0
2015-Mar-23 00:33N 49°09' W 123°02'0 0.0
2015-Mar-22 23:33N 49°09' W 123°02'0 0.0
2015-Mar-22 22:33N 49°09' W 123°02'0 0.0
2015-Mar-22 21:33N 49°09' W 123°02'0 0.0
2015-Mar-22 20:33N 49°09' W 123°02'0 0.0
2015-Mar-22 19:33N 49°09' W 123°02'0 0.0
2015-Mar-22 18:33N 49°09' W 123°02'0 0.0
2015-Mar-22 17:33N 49°09' W 123°02'0 0.0
2015-Mar-22 16:33N 49°09' W 123°02'0 0.0
2015-Mar-22 15:33N 49°09' W 123°02'3 3.4
2015-Mar-22 14:33N 49°07' W 123°06'1110.7
2015-Mar-22 13:33N 49°07' W 123°23'9 9.2
2015-Mar-22 12:33N 49°10' W 123°36'9 8.9
2015-Mar-22 11:33N 49°13' W 123°49'6 5.5
2015-Mar-22 10:33N 49°10' W 123°56'0 0.0
2015-Mar-22 09:33N 49°10' W 123°56'3 3.0
2015-Mar-22 08:33N 49°12' W 123°53'9 8.7
2015-Mar-22 07:33N 49°11' W 123°39'1010.1
2015-Mar-22 06:33N 49°08' W 123°25'10 9.5
2015-Mar-22 05:33N 49°07' W 123°11'6 5.9
2015-Mar-22 04:33N 49°09' W 123°02'0 0.0
2015-Mar-22 03:33N 49°09' W 123°02'0 0.0
2015-Mar-22 02:33N 49°09' W 123°02'0 0.0
2015-Mar-22 01:33N 49°09' W 123°02'0 0.0
2015-Mar-22 00:33N 49°09' W 123°02'0 0.0
2015-Mar-21 23:33N 49°09' W 123°02'0 0.0
2015-Mar-21 22:33N 49°09' W 123°02'4 3.9
2015-Mar-21 21:33N 49°07' W 123°07'1111.0
2015-Mar-21 20:33N 49°07' W 123°24'1413.7
2015-Mar-21 19:33N 49°12' W 123°44'8 8.0
2015-Mar-21 18:33N 49°10' W 123°56'0 0.0
2015-Mar-21 17:33N 49°10' W 123°56'0 0.0
2015-Mar-21 16:20N 49°10' W 123°56'0 0.0
2015-Mar-21 14:22N 49°10' W 123°56'0 0.0
2015-Mar-21 12:32N 49°10' W 123°56'4 4.3
2015-Mar-21 11:33N 49°13' W 123°51'1313.4
2015-Mar-21 10:33N 49°09' W 123°31'1313.2
2015-Mar-21 09:33N 49°07' W 123°11'6 6.3
2015-Mar-21 08:33N 49°09' W 123°02'0 0.0
2015-Mar-21 07:33N 49°09' W 123°02'7 6.6
2015-Mar-21 06:33N 49°07' W 123°12'1010.1
2015-Mar-21 05:33N 49°08' W 123°27'1313.4
2015-Mar-21 04:34N 49°12' W 123°47'7 6.3
2015-Mar-21 03:31N 49°10' W 123°56'0 0.1
2015-Mar-21 02:33N 49°10' W 123°56'1110.6
2015-Mar-21 01:33N 49°12' W 123°40'1313.4
2015-Mar-21 00:33N 49°07' W 123°21'1212.2
2015-Mar-20 23:33N 49°09' W 123°02'0 0.2
2015-Mar-20 22:33N 49°09' W 123°02'6 5.5
2015-Mar-20 21:33N 49°07' W 123°10'7 7.0
2015-Mar-20 20:33N 49°02' W 123°17'1211.4
2015-Mar-20 19:30N 48°50' W 123°21'9 9.3
2015-Mar-20 18:33N 48°41' W 123°24'0 0.0
2015-Mar-20 17:32N 48°41' W 123°24'0 0.0
2015-Mar-20 16:33N 48°41' W 123°24'0 0.0
2015-Mar-20 15:33N 48°41' W 123°24'0 0.0
2015-Mar-20 14:33N 48°41' W 123°24'0 0.0
2015-Mar-20 13:33N 48°41' W 123°24'0 0.0
2015-Mar-20 12:33N 48°41' W 123°24'4 3.5
2015-Mar-20 11:33N 48°44' W 123°21'1313.0
2015-Mar-20 10:34N 48°57' W 123°18'1111.4
2015-Mar-20 09:34N 49°07' W 123°11'6 6.1
2015-Mar-20 08:33N 49°09' W 123°02'0 0.0
2015-Mar-20 07:33N 49°09' W 123°02'7 7.1
2015-Mar-20 06:33N 49°08' W 123°13'1110.7
2015-Mar-20 05:33N 49°08' W 123°29'1413.8
2015-Mar-20 04:33N 49°13' W 123°49'5 5.3
2015-Mar-20 03:33N 49°10' W 123°56'0 0.2
2015-Mar-20 02:33N 49°10' W 123°55'1211.9
2015-Mar-20 01:33N 49°11' W 123°37'1414.0
2015-Mar-20 00:33N 49°07' W 123°17'10 9.9
2015-Mar-19 23:33N 49°09' W 123°02'0 0.0
2015-Mar-19 22:33N 49°09' W 123°02'4 4.2
2015-Mar-19 21:33N 49°06' W 123°08'9 8.6
2015-Mar-19 20:33N 49°03' W 123°19'1212.1
2015-Mar-19 19:33N 48°51' W 123°21'10 9.6
2015-Mar-19 18:33N 48°41' W 123°24'0 0.0
2015-Mar-19 17:33N 48°41' W 123°24'0 0.0
2015-Mar-19 16:33N 48°41' W 123°24'0 0.0
2015-Mar-19 15:33N 48°41' W 123°24'0 0.0
2015-Mar-19 14:33N 48°41' W 123°24'0 0.0
2015-Mar-19 13:33N 48°41' W 123°24'0 0.0
2015-Mar-19 12:33N 48°41' W 123°24'2 2.0
2015-Mar-19 11:34N 48°42' W 123°22'1313.1
2015-Mar-19 10:33N 48°55' W 123°19'1312.6
2015-Mar-19 09:33N 49°08' W 123°15'8 8.3
2015-Mar-19 08:33N 49°09' W 123°02'0 0.0
2015-Mar-19 07:33N 49°09' W 123°02'7 6.7
2015-Mar-19 06:33N 49°07' W 123°12'1111.1
2015-Mar-19 05:34N 49°08' W 123°29'1414.0
2015-Mar-19 04:34N 49°13' W 123°49'5 5.0
2015-Mar-19 03:33N 49°10' W 123°56'0 0.1
2015-Mar-19 02:33N 49°10' W 123°56'1110.6
2015-Mar-19 01:33N 49°12' W 123°39'1312.8
2015-Mar-19 00:33N 49°07' W 123°21'1212.5
2015-Mar-18 23:33N 49°09' W 123°02'0 0.3
2015-Mar-18 22:33N 49°09' W 123°02'6 5.8
2015-Mar-18 21:33N 49°07' W 123°10'8 7.9
2015-Mar-18 20:33N 49°01' W 123°19'1110.8
2015-Mar-18 19:32N 48°50' W 123°21'9 9.7
2015-Mar-18 18:33N 48°41' W 123°24'0 0.0
2015-Mar-18 17:33N 48°41' W 123°24'0 0.0
2015-Mar-18 16:33N 48°41' W 123°24'0 0.0
2015-Mar-18 15:33N 48°41' W 123°24'0 0.0
2015-Mar-18 14:33N 48°41' W 123°24'0 0.0
2015-Mar-18 13:33N 48°41' W 123°24'0 0.0
2015-Mar-18 12:33N 48°41' W 123°24'2 2.0
2015-Mar-18 11:34N 48°42' W 123°22'1312.7
2015-Mar-18 10:34N 48°55' W 123°18'1312.7
2015-Mar-18 09:34N 49°07' W 123°16'9 9.0
2015-Mar-18 08:34N 49°09' W 123°02'0 0.0
2015-Mar-18 07:34N 49°09' W 123°02'7 7.4
2015-Mar-18 06:34N 49°08' W 123°13'1211.9
2015-Mar-18 05:34N 49°09' W 123°31'1413.7
2015-Mar-18 04:33N 49°12' W 123°52'4 3.5
2015-Mar-18 03:32N 49°10' W 123°56'  
Track history (hours):
 
Tides and Currents Weather Stations Pressure Air Temp Water Temp Dewpoint Dewpoint Depression Visibility Wind Speed Wind Dir Waves Ship Positions

Carrier Princess

Last reported at 2015-Mar-28 03:30 UTC. Time now 2015-Mar-28 03:57 UTC.
Position N 49°10' W 123°56'.

Length 112 m; draft 3 m.

Type: Cargo ship. MMSI: 316003656.

Date/timePositionNaut miles runAvg speedWind from/ knotsBaromVisibWave heightAir tempDewpointWater temp
2015-Mar-28 03:30N 49°10' W 123°56'0 0.1
2015-Mar-28 02:33N 49°10' W 123°56'1010.3
2015-Mar-28 01:33N 49°12' W 123°40'1313.2
2015-Mar-28 00:33N 49°07' W 123°22'1313.0
2015-Mar-27 23:34N 49°09' W 123°02'0 0.2
2015-Mar-27 22:33N 49°09' W 123°02'4 4.0
2015-Mar-27 21:34N 49°07' W 123°07'9 8.9
2015-Mar-27 20:34N 49°03' W 123°20'1111.4
2015-Mar-27 19:33N 48°51' W 123°21'1010.0
2015-Mar-27 18:33N 48°41' W 123°24'0 0.0
2015-Mar-27 17:33N 48°41' W 123°24'0 0.0
2015-Mar-27 16:33N 48°41' W 123°24'0 0.0
2015-Mar-27 15:33N 48°41' W 123°24'0 0.0
2015-Mar-27 14:33N 48°41' W 123°24'0 0.0
2015-Mar-27 13:33N 48°41' W 123°24'0 0.0
2015-Mar-27 12:33N 48°41' W 123°24'3 2.9
2015-Mar-27 11:33N 48°44' W 123°24'1212.3
2015-Mar-27 10:33N 48°56' W 123°18'1212.3
2015-Mar-27 09:33N 49°08' W 123°14'8 7.8
2015-Mar-27 08:33N 49°09' W 123°02'0 0.0
2015-Mar-27 07:33N 49°09' W 123°02'9 8.6
2015-Mar-27 06:33N 49°07' W 123°15'1111.4
2015-Mar-27 05:33N 49°09' W 123°32'1211.9
2015-Mar-27 04:34N 49°13' W 123°50'5 5.0
2015-Mar-27 03:33N 49°10' W 123°56'0 0.0
2015-Mar-27 02:33N 49°10' W 123°56'10 9.8
2015-Mar-27 01:33N 49°13' W 123°41'1313.3
2015-Mar-27 00:33N 49°07' W 123°23'1313.2
2015-Mar-26 23:34N 49°09' W 123°03'0 0.4
2015-Mar-26 22:33N 49°09' W 123°02'5 4.8
2015-Mar-26 21:33N 49°06' W 123°09'8 8.3
2015-Mar-26 20:33N 49°01' W 123°19'1211.6
2015-Mar-26 19:33N 48°50' W 123°21'9 8.8
2015-Mar-26 18:33N 48°41' W 123°24'0 0.0
2015-Mar-26 17:33N 48°41' W 123°24'0 0.0
2015-Mar-26 16:34N 48°41' W 123°24'0 0.0
2015-Mar-26 15:33N 48°41' W 123°24'0 0.0
2015-Mar-26 14:33N 48°41' W 123°24'0 0.0
2015-Mar-26 13:34N 48°41' W 123°24'0 0.0
2015-Mar-26 12:34N 48°41' W 123°24'3 3.4
2015-Mar-26 11:34N 48°44' W 123°21'1212.1
2015-Mar-26 10:33N 48°56' W 123°18'1212.5
2015-Mar-26 09:34N 49°08' W 123°14'8 8.0
2015-Mar-26 08:33N 49°09' W 123°02'0 0.0
2015-Mar-26 07:33N 49°09' W 123°02'8 8.2
2015-Mar-26 06:33N 49°08' W 123°15'1111.1
2015-Mar-26 05:33N 49°09' W 123°32'1211.8
2015-Mar-26 04:33N 49°13' W 123°48'6 5.8
2015-Mar-26 03:33N 49°10' W 123°56'0 0.0
2015-Mar-26 02:33N 49°10' W 123°56'10 9.6
2015-Mar-26 01:33N 49°13' W 123°42'1414.0
2015-Mar-26 00:33N 49°07' W 123°22'1313.0
2015-Mar-25 23:33N 49°09' W 123°02'0 0.3
2015-Mar-25 22:33N 49°09' W 123°02'4 4.5
2015-Mar-25 21:33N 49°06' W 123°08'8 8.2
2015-Mar-25 20:33N 49°03' W 123°20'1212.0
2015-Mar-25 19:32N 48°51' W 123°21'10 9.4
2015-Mar-25 18:29N 48°41' W 123°24'0 0.0
2015-Mar-25 17:33N 48°41' W 123°24'0 0.0
2015-Mar-25 16:29N 48°41' W 123°24'0 0.0
2015-Mar-25 15:33N 48°41' W 123°24'0 0.0
2015-Mar-25 14:33N 48°41' W 123°24'0 0.0
2015-Mar-25 13:33N 48°41' W 123°24'0 0.0
2015-Mar-25 12:33N 48°41' W 123°24'3 3.4
2015-Mar-25 11:33N 48°44' W 123°21'1211.9
2015-Mar-25 10:33N 48°56' W 123°19'1212.2
2015-Mar-25 09:33N 49°08' W 123°15'9 8.6
2015-Mar-25 08:34N 49°09' W 123°02'0 0.0
2015-Mar-25 07:34N 49°09' W 123°02'7 7.3
2015-Mar-25 06:34N 49°08' W 123°13'1111.2
2015-Mar-25 05:33N 49°08' W 123°30'1212.3
2015-Mar-25 04:33N 49°13' W 123°48'6 6.0
2015-Mar-25 03:34N 49°10' W 123°56'0 0.0
2015-Mar-25 02:33N 49°10' W 123°56'9 8.9
2015-Mar-25 01:34N 49°13' W 123°43'1413.8
2015-Mar-25 00:33N 49°07' W 123°23'1313.1
2015-Mar-24 23:33N 49°08' W 123°03'1 1.0
2015-Mar-24 22:33N 49°09' W 123°02'5 5.1
2015-Mar-24 21:34N 49°07' W 123°09'8 7.7
2015-Mar-24 20:34N 49°02' W 123°19'1211.9
2015-Mar-24 19:33N 48°50' W 123°21'9 9.3
2015-Mar-24 18:33N 48°41' W 123°24'0 0.0
2015-Mar-24 17:33N 48°41' W 123°24'0 0.0
2015-Mar-24 16:33N 48°41' W 123°24'0 0.0
2015-Mar-24 15:33N 48°41' W 123°24'0 0.0
2015-Mar-24 14:33N 48°41' W 123°24'0 0.0
2015-Mar-24 13:33N 48°41' W 123°24'0 0.0
2015-Mar-24 12:33N 48°41' W 123°24'3 3.1
2015-Mar-24 11:32N 48°44' W 123°23'1111.5
2015-Mar-24 10:34N 48°55' W 123°18'1212.4
2015-Mar-24 09:33N 49°07' W 123°15'9 8.7
2015-Mar-24 08:33N 49°09' W 123°02'0 0.0
2015-Mar-24 07:33N 49°09' W 123°02'8 8.2
2015-Mar-24 06:33N 49°08' W 123°15'1211.6
2015-Mar-24 05:33N 49°09' W 123°32'1212.1
2015-Mar-24 04:33N 49°13' W 123°50'5 4.9
2015-Mar-24 03:33N 49°10' W 123°56'0 0.0
2015-Mar-24 02:33N 49°10' W 123°56'1010.3
2015-Mar-24 01:33N 49°12' W 123°41'1413.5
2015-Mar-24 00:33N 49°06' W 123°22'1212.4
2015-Mar-23 23:33N 49°08' W 123°04'1 1.2
2015-Mar-23 22:33N 49°09' W 123°02'0 0.0
2015-Mar-23 21:33N 49°09' W 123°02'0 0.1
2015-Mar-23 20:33N 49°09' W 123°02'0 0.0
2015-Mar-23 19:33N 49°09' W 123°02'0 0.0
2015-Mar-23 18:33N 49°09' W 123°02'0 0.0
2015-Mar-23 17:33N 49°09' W 123°02'0 0.0
2015-Mar-23 16:33N 49°09' W 123°02'0 0.0
2015-Mar-23 15:33N 49°09' W 123°02'0 0.0
2015-Mar-23 14:33N 49°09' W 123°02'0 0.0
2015-Mar-23 13:33N 49°09' W 123°02'0 0.0
2015-Mar-23 12:33N 49°09' W 123°02'0 0.0
2015-Mar-23 11:33N 49°09' W 123°02'0 0.0
2015-Mar-23 10:33N 49°09' W 123°02'0 0.0
2015-Mar-23 09:33N 49°09' W 123°02'0 0.0
2015-Mar-23 08:33N 49°09' W 123°02'0 0.0
2015-Mar-23 07:33N 49°09' W 123°02'0 0.0
2015-Mar-23 06:33N 49°09' W 123°02'0 0.0
2015-Mar-23 05:33N 49°09' W 123°02'0 0.0
2015-Mar-23 04:33N 49°09' W 123°02'0 0.0
2015-Mar-23 03:33N 49°09' W 123°02'0 0.0
2015-Mar-23 02:33N 49°09' W 123°02'0 0.0
2015-Mar-23 01:33N 49°09' W 123°02'0 0.0
2015-Mar-23 00:33N 49°09' W 123°02'0 0.0
2015-Mar-22 23:33N 49°09' W 123°02'0 0.0
2015-Mar-22 22:33N 49°09' W 123°02'0 0.0
2015-Mar-22 21:33N 49°09' W 123°02'0 0.0
2015-Mar-22 20:33N 49°09' W 123°02'0 0.0
2015-Mar-22 19:33N 49°09' W 123°02'0 0.0
2015-Mar-22 18:33N 49°09' W 123°02'0 0.0
2015-Mar-22 17:33N 49°09' W 123°02'0 0.0
2015-Mar-22 16:33N 49°09' W 123°02'0 0.0
2015-Mar-22 15:33N 49°09' W 123°02'3 3.4
2015-Mar-22 14:33N 49°07' W 123°06'1110.7
2015-Mar-22 13:33N 49°07' W 123°23'9 9.2
2015-Mar-22 12:33N 49°10' W 123°36'9 8.9
2015-Mar-22 11:33N 49°13' W 123°49'6 5.5
2015-Mar-22 10:33N 49°10' W 123°56'0 0.0
2015-Mar-22 09:33N 49°10' W 123°56'3 3.0
2015-Mar-22 08:33N 49°12' W 123°53'9 8.7
2015-Mar-22 07:33N 49°11' W 123°39'1010.1
2015-Mar-22 06:33N 49°08' W 123°25'10 9.5
2015-Mar-22 05:33N 49°07' W 123°11'6 5.9
2015-Mar-22 04:33N 49°09' W 123°02'0 0.0
2015-Mar-22 03:33N 49°09' W 123°02'0 0.0
2015-Mar-22 02:33N 49°09' W 123°02'0 0.0
2015-Mar-22 01:33N 49°09' W 123°02'0 0.0
2015-Mar-22 00:33N 49°09' W 123°02'0 0.0
2015-Mar-21 23:33N 49°09' W 123°02'0 0.0
2015-Mar-21 22:33N 49°09' W 123°02'4 3.9
2015-Mar-21 21:33N 49°07' W 123°07'1111.0
2015-Mar-21 20:33N 49°07' W 123°24'1413.7
2015-Mar-21 19:33N 49°12' W 123°44'8 8.0
2015-Mar-21 18:33N 49°10' W 123°56'0 0.0
2015-Mar-21 17:33N 49°10' W 123°56'0 0.0
2015-Mar-21 16:20N 49°10' W 123°56'0 0.0
2015-Mar-21 14:22N 49°10' W 123°56'0 0.0
2015-Mar-21 12:32N 49°10' W 123°56'4 4.3
2015-Mar-21 11:33N 49°13' W 123°51'1313.4
2015-Mar-21 10:33N 49°09' W 123°31'1313.2
2015-Mar-21 09:33N 49°07' W 123°11'6 6.3
2015-Mar-21 08:33N 49°09' W 123°02'0 0.0
2015-Mar-21 07:33N 49°09' W 123°02'7 6.6
2015-Mar-21 06:33N 49°07' W 123°12'1010.1
2015-Mar-21 05:33N 49°08' W 123°27'1313.4
2015-Mar-21 04:34N 49°12' W 123°47'7 6.3
2015-Mar-21 03:31N 49°10' W 123°56'0 0.1
2015-Mar-21 02:33N 49°10' W 123°56'1110.6
2015-Mar-21 01:33N 49°12' W 123°40'1313.4
2015-Mar-21 00:33N 49°07' W 123°21'1212.2
2015-Mar-20 23:33N 49°09' W 123°02'0 0.2
2015-Mar-20 22:33N 49°09' W 123°02'6 5.5
2015-Mar-20 21:33N 49°07' W 123°10'7 7.0
2015-Mar-20 20:33N 49°02' W 123°17'1211.4
2015-Mar-20 19:30N 48°50' W 123°21'9 9.3
2015-Mar-20 18:33N 48°41' W 123°24'0 0.0
2015-Mar-20 17:32N 48°41' W 123°24'0 0.0
2015-Mar-20 16:33N 48°41' W 123°24'0 0.0
2015-Mar-20 15:33N 48°41' W 123°24'0 0.0
2015-Mar-20 14:33N 48°41' W 123°24'0 0.0
2015-Mar-20 13:33N 48°41' W 123°24'0 0.0
2015-Mar-20 12:33N 48°41' W 123°24'4 3.5
2015-Mar-20 11:33N 48°44' W 123°21'1313.0
2015-Mar-20 10:34N 48°57' W 123°18'1111.4
2015-Mar-20 09:34N 49°07' W 123°11'6 6.1
2015-Mar-20 08:33N 49°09' W 123°02'0 0.0
2015-Mar-20 07:33N 49°09' W 123°02'7 7.1
2015-Mar-20 06:33N 49°08' W 123°13'1110.7
2015-Mar-20 05:33N 49°08' W 123°29'1413.8
2015-Mar-20 04:33N 49°13' W 123°49'5 5.3
2015-Mar-20 03:33N 49°10' W 123°56'0 0.2
2015-Mar-20 02:33N 49°10' W 123°55'1211.9
2015-Mar-20 01:33N 49°11' W 123°37'1414.0
2015-Mar-20 00:33N 49°07' W 123°17'10 9.9
2015-Mar-19 23:33N 49°09' W 123°02'0 0.0
2015-Mar-19 22:33N 49°09' W 123°02'4 4.2
2015-Mar-19 21:33N 49°06' W 123°08'9 8.6
2015-Mar-19 20:33N 49°03' W 123°19'1212.1
2015-Mar-19 19:33N 48°51' W 123°21'10 9.6
2015-Mar-19 18:33N 48°41' W 123°24'0 0.0
2015-Mar-19 17:33N 48°41' W 123°24'0 0.0
2015-Mar-19 16:33N 48°41' W 123°24'0 0.0
2015-Mar-19 15:33N 48°41' W 123°24'0 0.0
2015-Mar-19 14:33N 48°41' W 123°24'0 0.0
2015-Mar-19 13:33N 48°41' W 123°24'0 0.0
2015-Mar-19 12:33N 48°41' W 123°24'2 2.0
2015-Mar-19 11:34N 48°42' W 123°22'1313.1
2015-Mar-19 10:33N 48°55' W 123°19'1312.6
2015-Mar-19 09:33N 49°08' W 123°15'8 8.3
2015-Mar-19 08:33N 49°09' W 123°02'0 0.0
2015-Mar-19 07:33N 49°09' W 123°02'7 6.7
2015-Mar-19 06:33N 49°07' W 123°12'1111.1
2015-Mar-19 05:34N 49°08' W 123°29'1414.0
2015-Mar-19 04:34N 49°13' W 123°49'5 5.0
2015-Mar-19 03:33N 49°10' W 123°56'0 0.1
2015-Mar-19 02:33N 49°10' W 123°56'1110.6
2015-Mar-19 01:33N 49°12' W 123°39'1312.8
2015-Mar-19 00:33N 49°07' W 123°21'1212.5
2015-Mar-18 23:33N 49°09' W 123°02'0 0.3
2015-Mar-18 22:33N 49°09' W 123°02'6 5.8
2015-Mar-18 21:33N 49°07' W 123°10'8 7.9
2015-Mar-18 20:33N 49°01' W 123°19'1110.8
2015-Mar-18 19:32N 48°50' W 123°21'9 9.7
2015-Mar-18 18:33N 48°41' W 123°24'0 0.0
2015-Mar-18 17:33N 48°41' W 123°24'0 0.0
2015-Mar-18 16:33N 48°41' W 123°24'0 0.0
2015-Mar-18 15:33N 48°41' W 123°24'0 0.0
2015-Mar-18 14:33N 48°41' W 123°24'0 0.0
2015-Mar-18 13:33N 48°41' W 123°24'0 0.0
2015-Mar-18 12:33N 48°41' W 123°24'2 2.0
2015-Mar-18 11:34N 48°42' W 123°22'1312.7
2015-Mar-18 10:34N 48°55' W 123°18'1312.7
2015-Mar-18 09:34N 49°07' W 123°16'9 9.0
2015-Mar-18 08:34N 49°09' W 123°02'0 0.0
2015-Mar-18 07:34N 49°09' W 123°02'7 7.4
2015-Mar-18 06:34N 49°08' W 123°13'1211.9
2015-Mar-18 05:34N 49°09' W 123°31'1413.7
2015-Mar-18 04:33N 49°12' W 123°52'4 3.5
2015-Mar-18 03:32N 49°10' W 123°56'  

Dump ship's entire track history